Time;durP1;ratioP1;P1;durP2;ratioP2;P2;SDS_P1;SDS_P2;PMS_P1;PMS_P2;Temp;Humidity;BMP_temperature;BMP_pressure;BME280_temperature;BME280_humidity;BME280_pressure;Samples;Min_cycle;Max_cycle;Signal;HPM_P1;HPM_P2
2021/11/15 00:00:11;;;;;;;1.42;0.90;;;;;;;3.72;100.00;101016.91;4946002;28;20150;-61
2021/11/15 00:03:02;;;;;;;1.73;1.02;;;;;;;3.47;100.00;101016.19;4960647;28;20054;-61
2021/11/15 00:05:46;;;;;;;;;;;;;;;3.60;100.00;101037.56;4976235;28;20130;-64
2021/11/15 00:08:31;;;;;;;1.90;0.80;;;;;;;3.65;100.00;101021.97;4948567;28;19927;-65
2021/11/15 00:11:15;;;;;;;3.30;1.10;;;;;;;3.60;100.00;101019.22;4967075;28;20431;-63
2021/11/15 00:14:00;;;;;;;1.58;1.00;;;;;;;3.51;100.00;101037.31;4943403;29;20057;-63
2021/11/15 00:16:45;;;;;;;1.92;1.00;;;;;;;3.53;100.00;101029.50;4966707;28;20450;-61
2021/11/15 00:19:30;;;;;;;1.80;1.25;;;;;;;3.75;100.00;101029.22;4966009;28;20432;-61
2021/11/15 00:22:15;;;;;;;1.30;1.00;;;;;;;3.78;100.00;101031.94;4964069;28;20054;-62
2021/11/15 00:25:00;;;;;;;2.53;1.10;;;;;;;3.80;100.00;101030.25;4948140;28;20094;-61
2021/11/15 00:27:45;;;;;;;1.65;1.10;;;;;;;3.94;100.00;101049.88;4961484;28;20431;-68
2021/11/15 00:30:29;;;;;;;3.63;1.00;;;;;;;3.94;100.00;101042.00;4939194;28;20053;-61
2021/11/15 00:33:14;;;;;;;2.33;1.10;;;;;;;3.95;100.00;101054.25;4965298;28;20141;-63
2021/11/15 00:35:59;;;;;;;3.20;1.40;;;;;;;4.02;100.00;101057.09;4965308;28;20144;-61
2021/11/15 00:38:44;;;;;;;;;;;;;;;4.11;100.00;101070.47;4951992;28;20202;-62
2021/11/15 00:41:28;;;;;;;6.13;1.95;;;;;;;4.13;100.00;101060.91;4954762;28;20013;-62
2021/11/15 00:44:12;;;;;;;3.72;1.35;;;;;;;4.14;100.00;101051.28;4959229;28;20549;-61
2021/11/15 00:46:57;;;;;;;2.83;1.40;;;;;;;4.02;100.00;101062.34;4963361;28;20101;-66
2021/11/15 00:49:42;;;;;;;1.77;0.95;;;;;;;3.93;100.00;101053.34;4959716;28;20537;-61
2021/11/15 00:52:26;;;;;;;3.00;1.13;;;;;;;3.95;100.00;101060.41;4946753;28;20050;-67
2021/11/15 00:55:11;;;;;;;1.58;0.88;;;;;;;3.95;100.00;101068.28;4946675;28;20078;-62
2021/11/15 00:57:55;;;;;;;2.55;0.90;;;;;;;3.88;100.00;101063.69;4951986;28;20101;-63
2021/11/15 01:00:41;;;;;;;1.42;0.77;;;;;;;3.76;100.00;101065.13;4964906;28;20525;-63
2021/11/15 01:03:26;;;;;;;2.47;1.00;;;;;;;3.69;100.00;101063.16;4965962;28;20402;-65
2021/11/15 01:06:11;;;;;;;3.80;0.80;;;;;;;3.44;100.00;101053.72;4961598;28;20077;-67
2021/11/15 01:08:55;;;;;;;2.13;0.70;;;;;;;3.55;100.00;101083.75;4968795;28;20100;-65
2021/11/15 01:11:40;;;;;;;0.77;0.47;;;;;;;3.56;100.00;101087.28;4947318;28;20450;-66
2021/11/15 01:14:24;;;;;;;0.90;0.65;;;;;;;3.39;100.00;101083.25;4950781;28;20110;-67
2021/11/15 01:17:09;;;;;;;1.05;0.50;;;;;;;3.25;100.00;101089.84;4958811;28;20149;-66
2021/11/15 01:19:53;;;;;;;2.70;0.43;;;;;;;3.12;100.00;101098.16;4965845;28;20130;-66
2021/11/15 01:22:38;;;;;;;1.42;0.50;;;;;;;3.08;100.00;101105.03;4967814;28;20590;-65
2021/11/15 01:25:23;;;;;;;1.75;0.60;;;;;;;2.94;100.00;101095.88;4941661;28;20085;-68
2021/11/15 01:28:09;;;;;;;0.20;0.20;;;;;;;3.00;100.00;101117.00;4952170;28;20530;-65
2021/11/15 01:30:54;;;;;;;0.93;0.20;;;;;;;3.03;100.00;101108.34;4957440;28;20058;-65
2021/11/15 01:33:39;;;;;;;0.52;0.20;;;;;;;2.99;100.00;101106.47;4967680;28;20097;-65
2021/11/15 01:36:23;;;;;;;0.30;0.30;;;;;;;3.21;100.00;101122.03;4958486;28;20508;-67
2021/11/15 01:39:08;;;;;;;1.00;0.40;;;;;;;3.14;100.00;101114.81;4961763;28;20049;-65
2021/11/15 01:41:54;;;;;;;0.20;0.10;;;;;;;3.01;100.00;101123.16;4964062;28;20538;-68
2021/11/15 01:44:39;;;;;;;0.30;0.28;;;;;;;3.12;100.00;101135.72;4960152;28;20058;-66
2021/11/15 01:47:24;;;;;;;0.52;0.20;;;;;;;3.20;100.00;101147.34;4964878;28;20542;-64
2021/11/15 01:50:15;;;;;;;0.30;0.20;;;;;;;3.17;100.00;101142.00;4963114;28;20102;-65
2021/11/15 01:53:02;;;;;;;0.28;0.20;;;;;;;3.20;100.00;101152.59;4951346;28;20054;-64
2021/11/15 01:55:48;;;;;;;0.73;0.30;;;;;;;3.26;100.00;101154.50;4969455;28;20054;-65
2021/11/15 01:58:33;;;;;;;0.43;0.30;;;;;;;3.26;100.00;101154.50;4948684;29;20093;-66
2021/11/15 02:01:18;;;;;;;0.40;0.28;;;;;;;3.36;100.00;101154.84;4964475;28;20065;-64
2021/11/15 02:04:02;;;;;;;0.68;0.20;;;;;;;3.06;100.00;101176.56;4952827;28;20050;-64
2021/11/15 02:06:47;;;;;;;0.32;0.30;;;;;;;3.14;100.00;101178.63;4969001;28;20054;-68
2021/11/15 02:09:38;;;;;;;1.00;0.30;;;;;;;3.16;100.00;101190.03;4955441;28;20530;-64
2021/11/15 02:12:26;;;;;;;0.20;0.20;;;;;;;3.17;100.00;101186.53;4967203;28;20050;-63
2021/11/15 02:15:13;;;;;;;1.15;0.30;;;;;;;3.21;100.00;101183.19;4956791;28;20101;-66
2021/11/15 02:17:58;;;;;;;1.17;0.30;;;;;;;3.10;100.00;101181.97;4932768;29;20180;-63
2021/11/15 02:20:56;;;;;;;0.20;0.17;;;;;;;3.19;100.00;101194.47;4953706;28;20046;-63
2021/11/15 02:23:44;;;;;;;0.57;0.20;;;;;;;3.13;100.00;101203.00;4953598;28;20106;-66
2021/11/15 02:26:29;;;;;;;0.50;0.30;;;;;;;3.06;100.00;101193.19;4935613;29;20054;-64
2021/11/15 02:29:14;;;;;;;1.02;0.20;;;;;;;3.00;100.00;101200.84;4947214;29;20134;-65
2021/11/15 02:31:58;;;;;;;0.40;0.20;;;;;;;3.06;100.00;101206.31;4957908;28;20066;-65
2021/11/15 02:34:42;;;;;;;0.32;0.10;;;;;;;3.22;100.00;101208.56;4946471;28;20102;-64
2021/11/15 02:37:27;;;;;;;0.55;0.30;;;;;;;3.17;100.00;101214.50;4929883;29;20062;-63
2021/11/15 02:40:14;;;;;;;0.57;0.40;;;;;;;3.25;100.00;101219.13;4937469;28;20058;-68
2021/11/15 02:43:00;;;;;;;0.40;0.20;;;;;;;3.30;100.00;101214.06;4939845;29;20062;-63
2021/11/15 02:45:46;;;;;;;0.20;0.15;;;;;;;3.28;100.00;101218.38;4916575;29;20411;-63
2021/11/15 02:48:31;;;;;;;0.40;0.40;;;;;;;3.19;100.00;101220.66;4940071;29;20562;-63
2021/11/15 02:51:16;;;;;;;0.77;0.38;;;;;;;3.16;100.00;101215.31;4934199;29;20061;-63
2021/11/15 02:54:01;;;;;;;0.85;0.30;;;;;;;2.92;100.00;101215.41;4948042;29;20053;-64
2021/11/15 02:56:46;;;;;;;0.52;0.45;;;;;;;3.06;100.00;101214.16;4947526;28;20067;-62
2021/11/15 02:59:31;;;;;;;0.70;0.50;;;;;;;3.07;100.00;101217.66;4928697;29;20055;-68
2021/11/15 03:02:16;;;;;;;0.60;0.40;;;;;;;3.14;100.00;101227.50;4945664;29;20534;-62
2021/11/15 03:05:00;;;;;;;0.57;0.35;;;;;;;3.03;100.00;101224.53;4946029;29;20058;-62
2021/11/15 03:07:46;;;;;;;1.30;0.45;;;;;;;3.19;100.00;101234.69;4946139;29;20470;-64
2021/11/15 03:10:31;;;;;;;0.73;0.40;;;;;;;3.34;100.00;101231.66;4945711;29;20162;-62
2021/11/15 03:13:19;;;;;;;1.50;0.40;;;;;;;3.44;100.00;101241.59;4947098;29;20050;-70
2021/11/15 03:16:06;;;;;;;1.13;0.47;;;;;;;3.40;100.00;101239.72;4940311;29;20107;-63
2021/11/15 03:18:51;;;;;;;0.70;0.45;;;;;;;3.46;100.00;101248.69;4933933;29;20475;-64
2021/11/15 03:21:36;;;;;;;1.33;0.45;;;;;;;3.54;100.00;101247.19;4933891;29;20135;-65
2021/11/15 03:24:21;;;;;;;1.00;0.30;;;;;;;3.50;100.00;101247.94;4931001;29;20062;-63
2021/11/15 03:27:05;;;;;;;1.08;0.40;;;;;;;3.43;100.00;101256.44;4935509;29;20062;-67
2021/11/15 03:29:50;;;;;;;0.45;0.30;;;;;;;3.51;100.00;101247.09;4931515;29;20051;-64
2021/11/15 03:32:35;;;;;;;1.02;0.30;;;;;;;3.69;100.00;101258.13;4958726;28;20057;-66
2021/11/15 03:35:21;;;;;;;1.20;0.52;;;;;;;3.72;100.00;101254.75;4947587;28;20507;-63
2021/11/15 03:38:06;;;;;;;1.65;0.30;;;;;;;3.58;100.00;101262.19;4936244;29;20046;-71
2021/11/15 03:40:51;;;;;;;0.95;0.30;;;;;;;3.50;100.00;101252.28;4947785;28;20070;-65
2021/11/15 03:43:36;;;;;;;0.30;0.30;;;;;;;3.50;100.00;101268.00;4978402;28;20100;-67
2021/11/15 03:46:22;;;;;;;0.75;0.17;;;;;;;3.25;100.00;101268.94;4972880;28;20061;-64
2021/11/15 03:49:07;;;;;;;0.80;0.47;;;;;;;3.35;100.00;101262.25;4959827;28;20129;-65
2021/11/15 03:51:52;;;;;;;2.15;0.40;;;;;;;3.32;100.00;101277.91;4946666;28;20070;-67
2021/11/15 03:54:37;;;;;;;0.77;0.43;;;;;;;3.29;100.00;101281.28;4960179;28;20062;-65
2021/11/15 03:57:21;;;;;;;0.70;0.35;;;;;;;3.40;100.00;101281.69;4946204;28;20503;-66
2021/11/15 04:00:09;;;;;;;2.28;0.40;;;;;;;3.44;100.00;101294.03;4953785;28;20126;-64
2021/11/15 04:03:10;;;;;;;0.98;0.40;;;;;;;3.46;100.00;101297.59;4944051;29;20122;-63
2021/11/15 04:05:58;;;;;;;0.73;0.43;;;;;;;3.48;100.00;101296.78;4952213;28;20494;-66
2021/11/15 04:08:43;;;;;;;0.82;0.20;;;;;;;3.66;100.00;101307.91;4935206;28;20578;-67
2021/11/15 04:11:31;;;;;;;1.55;0.40;;;;;;;3.55;100.00;101305.75;4959897;28;20054;-67
2021/11/15 04:14:16;;;;;;;1.67;0.38;;;;;;;3.46;100.00;101308.97;4955176;28;20586;-67
2021/11/15 04:17:00;;;;;;;0.95;0.50;;;;;;;3.39;100.00;101313.94;4969202;28;20093;-64
2021/11/15 04:19:47;;;;;;;0.77;0.35;;;;;;;3.48;100.00;101330.00;4956953;28;20054;-65
2021/11/15 04:22:31;;;;;;;0.75;0.45;;;;;;;3.48;100.00;101323.00;4976493;28;20474;-63
2021/11/15 04:25:16;;;;;;;0.80;0.32;;;;;;;3.43;100.00;101340.34;4955864;28;20058;-63
2021/11/15 04:28:00;;;;;;;1.25;0.52;;;;;;;3.38;100.00;101347.16;4972644;28;20074;-65
2021/11/15 04:30:45;;;;;;;1.42;0.90;;;;;;;3.52;100.00;101361.63;4974549;28;20057;-66
2021/11/15 04:33:30;;;;;;;1.52;0.63;;;;;;;3.39;100.00;101356.81;4956685;28;20061;-63
2021/11/15 04:36:14;;;;;;;0.98;0.35;;;;;;;3.44;100.00;101363.09;4961506;28;20105;-63
2021/11/15 04:38:58;;;;;;;3.15;0.80;;;;;;;3.38;100.00;101373.38;4963475;28;20050;-63
2021/11/15 04:41:43;;;;;;;1.63;0.65;;;;;;;3.23;100.00;101374.56;4977826;28;20140;-63
2021/11/15 04:44:27;;;;;;;1.30;0.50;;;;;;;3.35;100.00;101381.13;4976384;28;20050;-64
2021/11/15 04:47:12;;;;;;;0.88;0.40;;;;;;;3.49;100.00;101382.47;4967728;28;20092;-61
2021/11/15 04:49:56;;;;;;;1.20;0.52;;;;;;;3.46;100.00;101391.97;4958342;28;20057;-62
2021/11/15 04:52:41;;;;;;;2.83;0.50;;;;;;;3.56;100.00;101389.72;4937714;28;20057;-65
2021/11/15 04:55:26;;;;;;;1.85;0.80;;;;;;;3.52;100.00;101394.84;4955990;28;20578;-64
2021/11/15 04:58:11;;;;;;;0.82;0.50;;;;;;;3.53;100.00;101389.59;4937640;28;20073;-72
2021/11/15 05:00:56;;;;;;;0.68;0.40;;;;;;;3.19;100.00;101402.41;4948091;28;20542;-65
2021/11/15 05:03:41;;;;;;;0.88;0.60;;;;;;;3.39;100.00;101403.09;4949413;28;20058;-62
2021/11/15 05:06:26;;;;;;;;;;;;;;;3.28;100.00;101402.72;4951449;28;20131;-62
2021/11/15 05:09:11;;;;;;;0.65;0.40;;;;;;;3.37;100.00;101400.41;4963861;28;20433;-63
2021/11/15 05:11:55;;;;;;;0.43;0.40;;;;;;;3.30;100.00;101415.88;4963046;28;20658;-63
2021/11/15 05:14:41;;;;;;;1.23;0.65;;;;;;;3.28;100.00;101409.72;4969634;28;20054;-64
2021/11/15 05:17:25;;;;;;;2.42;0.70;;;;;;;3.14;100.00;101401.38;4974465;28;20054;-74
2021/11/15 05:20:11;;;;;;;0.65;0.30;;;;;;;3.25;100.00;101414.84;4967398;28;20098;-68
2021/11/15 05:22:56;;;;;;;1.63;0.60;;;;;;;3.10;100.00;101422.16;4965926;28;20057;-66
2021/11/15 05:25:42;;;;;;;1.20;0.60;;;;;;;3.10;100.00;101430.00;4959480;28;20058;-65
2021/11/15 05:28:27;;;;;;;1.05;0.60;;;;;;;3.11;100.00;101437.03;4953650;28;20089;-65
2021/11/15 05:31:12;;;;;;;1.95;0.40;;;;;;;3.14;100.00;101439.78;4963935;28;20054;-63
2021/11/15 05:33:56;;;;;;;1.95;0.80;;;;;;;3.07;100.00;101443.91;4951805;28;20058;-62
2021/11/15 05:36:41;;;;;;;1.50;0.40;;;;;;;3.19;100.00;101441.72;4948621;28;20110;-66
2021/11/15 05:39:25;;;;;;;1.27;0.52;;;;;;;2.95;100.00;101451.31;4964687;28;20073;-63
2021/11/15 05:42:11;;;;;;;1.10;0.60;;;;;;;3.12;100.00;101455.44;4948815;28;20066;-65
2021/11/15 05:44:55;;;;;;;0.70;0.40;;;;;;;3.39;100.00;101456.44;4950559;28;20423;-65
2021/11/15 05:47:41;;;;;;;0.88;0.50;;;;;;;3.40;100.00;101452.09;4965998;28;20352;-65
2021/11/15 05:50:28;;;;;;;1.35;0.70;;;;;;;3.53;100.00;101473.53;4942368;28;20140;-64
2021/11/15 05:53:14;;;;;;;2.63;0.60;;;;;;;3.66;100.00;101473.13;4952339;28;20182;-64
2021/11/15 05:55:59;;;;;;;1.48;0.80;;;;;;;3.58;100.00;101478.94;4951479;28;20554;-69
2021/11/15 05:58:44;;;;;;;1.35;0.85;;;;;;;3.44;100.00;101467.97;4961558;28;20054;-65
2021/11/15 06:01:29;;;;;;;2.28;0.95;;;;;;;3.49;100.00;101487.38;4951144;28;20118;-64
2021/11/15 06:04:14;;;;;;;1.70;1.00;;;;;;;3.48;100.00;101492.59;4954872;28;20050;-64
2021/11/15 06:06:58;;;;;;;2.45;1.15;;;;;;;3.36;100.00;101487.78;4957543;28;20614;-64
2021/11/15 06:09:43;;;;;;;1.80;1.40;;;;;;;3.53;100.00;101497.13;4964771;28;20065;-64
2021/11/15 06:12:27;;;;;;;2.65;1.50;;;;;;;3.58;100.00;101478.94;4967824;28;20451;-64
2021/11/15 06:15:15;;;;;;;2.08;1.20;;;;;;;3.60;100.00;101503.50;4967132;28;20054;-67
2021/11/15 06:17:59;;;;;;;3.28;1.42;;;;;;;3.67;100.00;101495.00;4968116;28;20053;-64
2021/11/15 06:20:45;;;;;;;2.58;1.38;;;;;;;3.61;100.00;101500.03;4958837;28;20058;-62
2021/11/15 06:23:30;;;;;;;1.60;1.20;;;;;;;3.69;100.00;101511.69;4967421;28;20058;-63
2021/11/15 06:26:14;;;;;;;1.92;1.15;;;;;;;3.84;100.00;101528.84;4960193;28;20547;-62
2021/11/15 06:28:59;;;;;;;4.47;1.48;;;;;;;4.08;100.00;101527.06;4963845;28;20105;-64
2021/11/15 06:31:43;;;;;;;2.13;1.40;;;;;;;4.19;100.00;101530.03;4960219;28;20552;-61
2021/11/15 06:34:28;;;;;;;2.22;1.10;;;;;;;4.14;100.00;101535.16;4967105;28;20502;-68
2021/11/15 06:37:13;;;;;;;2.25;0.93;;;;;;;4.14;100.00;101540.41;4948783;28;20106;-62
2021/11/15 06:39:57;;;;;;;1.85;1.08;;;;;;;3.89;100.00;101539.50;4958371;28;20177;-64
2021/11/15 06:42:42;;;;;;;1.63;0.70;;;;;;;3.87;100.00;101539.44;4966591;28;20053;-63
2021/11/15 06:45:30;;;;;;;2.22;0.77;;;;;;;3.77;100.00;101549.59;4955225;28;20132;-62
2021/11/15 06:48:14;;;;;;;4.45;1.00;;;;;;;3.82;100.00;101561.13;4963186;28;20059;-64
2021/11/15 06:50:59;;;;;;;1.30;0.68;;;;;;;3.89;100.00;101564.03;4948727;28;20062;-64
2021/11/15 06:53:45;;;;;;;1.20;0.60;;;;;;;4.03;100.00;101573.25;4961989;28;20057;-66
2021/11/15 06:56:30;;;;;;;1.30;0.82;;;;;;;3.93;100.00;101565.94;4966974;28;20190;-63
2021/11/15 06:59:16;;;;;;;1.00;0.70;;;;;;;4.00;100.00;101567.03;4964659;28;20158;-62
2021/11/15 07:02:01;;;;;;;1.77;0.77;;;;;;;4.13;100.00;101577.09;4943995;28;20137;-64
2021/11/15 07:04:45;;;;;;;0.95;0.65;;;;;;;4.22;100.00;101591.44;4971406;28;20065;-66
2021/11/15 07:07:30;;;;;;;1.58;0.82;;;;;;;4.25;100.00;101591.56;4957795;28;20045;-73
2021/11/15 07:10:16;;;;;;;1.08;0.63;;;;;;;4.29;100.00;101601.31;4957340;28;20049;-66
2021/11/15 07:13:01;;;;;;;1.10;0.50;;;;;;;4.38;100.00;101611.22;4947591;28;20539;-63
2021/11/15 07:15:48;;;;;;;1.77;0.77;;;;;;;4.32;100.00;101618.91;4954020;28;20454;-62
2021/11/15 07:18:33;;;;;;;1.42;0.88;;;;;;;4.24;100.00;101623.00;4951173;28;20089;-63
2021/11/15 07:21:22;;;;;;;2.13;0.70;;;;;;;4.08;100.00;101613.69;4948135;28;20051;-63
2021/11/15 07:24:07;;;;;;;1.15;0.60;;;;;;;4.13;100.00;101630.50;4963974;28;20544;-62
2021/11/15 07:26:52;;;;;;;0.80;0.60;;;;;;;4.21;100.00;101644.78;4956785;28;20450;-68
2021/11/15 07:29:37;;;;;;;0.88;0.63;;;;;;;4.22;100.00;101641.31;4960266;28;20109;-65
2021/11/15 07:32:22;;;;;;;1.58;0.70;;;;;;;4.31;100.00;101638.09;4960452;28;20074;-62
2021/11/15 07:35:07;;;;;;;1.88;0.60;;;;;;;4.53;100.00;101651.16;4949704;28;20462;-63
2021/11/15 07:37:52;;;;;;;1.23;0.50;;;;;;;4.72;100.00;101657.06;4966320;28;20150;-64
2021/11/15 07:40:36;;;;;;;0.93;0.52;;;;;;;4.79;100.00;101643.28;4952092;28;20109;-63
2021/11/15 07:43:22;;;;;;;0.77;0.50;;;;;;;4.66;100.00;101677.88;4964164;28;20052;-66
2021/11/15 07:46:07;;;;;;;1.33;0.70;;;;;;;4.95;100.00;101677.09;4964008;28;20069;-70
2021/11/15 07:48:52;;;;;;;2.15;0.60;;;;;;;6.52;100.00;101693.31;4937024;29;20054;-63
2021/11/15 07:51:39;;;;;;;1.00;0.52;;;;;;;7.51;100.00;101681.72;4964093;28;20085;-63
2021/11/15 07:54:28;;;;;;;0.82;0.50;;;;;;;8.72;100.00;101704.53;4951885;28;20101;-67
2021/11/15 07:57:15;;;;;;;1.15;0.80;;;;;;;8.72;100.00;101699.25;4964508;28;20053;-66
2021/11/15 07:59:59;;;;;;;1.50;0.80;;;;;;;8.08;100.00;101719.97;4955503;28;20090;-71
2021/11/15 08:02:45;;;;;;;1.17;0.70;;;;;;;7.43;100.00;101722.88;4963761;28;20046;-66
2021/11/15 08:05:30;;;;;;;1.55;0.70;;;;;;;7.09;100.00;101730.84;4969633;28;20045;-65
2021/11/15 08:08:14;;;;;;;2.88;1.10;;;;;;;6.93;100.00;101723.41;4973495;28;20064;-59
2021/11/15 08:11:00;;;;;;;3.75;1.00;;;;;;;6.69;100.00;101720.13;4972873;28;20056;-68
2021/11/15 08:13:46;;;;;;;1.98;1.00;;;;;;;5.99;100.00;101727.81;4978485;28;20514;-66
2021/11/15 08:16:31;;;;;;;2.33;0.50;;;;;;;5.85;100.00;101729.13;4970467;28;20066;-66
2021/11/15 08:19:16;;;;;;;0.98;0.50;;;;;;;5.73;100.00;101731.34;4964210;28;20604;-64
2021/11/15 08:22:01;;;;;;;3.33;0.60;;;;;;;5.50;100.00;101736.75;4973282;28;20092;-67
2021/11/15 08:25:36;;;;;;;4.82;0.88;;;;;;;5.45;100.00;101735.72;4967004;28;20104;-65
2021/11/15 08:28:20;;;;;;;2.03;0.70;;;;;;;5.27;100.00;101743.91;4939869;28;20543;-63
2021/11/15 08:31:08;;;;;;;2.35;0.63;;;;;;;5.16;100.00;101750.56;4940185;28;20055;-67
2021/11/15 08:33:55;;;;;;;1.95;1.20;;;;;;;5.27;100.00;101751.81;4933358;29;20438;-65
2021/11/15 08:36:42;;;;;;;4.50;0.60;;;;;;;5.18;100.00;101764.63;4933381;28;20054;-64
2021/11/15 08:39:30;;;;;;;3.13;0.88;;;;;;;4.95;100.00;101740.19;4934192;29;20131;-73
2021/11/15 08:42:15;;;;;;;1.70;0.85;;;;;;;4.68;100.00;101752.38;4919666;29;20079;-67
2021/11/15 08:45:02;;;;;;;4.80;0.80;;;;;;;4.91;100.00;101775.09;4934250;28;20229;-65
2021/11/15 08:47:47;;;;;;;4.80;0.90;;;;;;;4.95;100.00;101762.97;4939389;28;20137;-65
2021/11/15 08:50:33;;;;;;;2.38;0.90;;;;;;;4.91;100.00;101783.00;4930614;29;20660;-66
2021/11/15 08:53:18;;;;;;;4.50;0.80;;;;;;;4.82;100.00;101779.16;4932620;28;20046;-63
2021/11/15 08:56:04;;;;;;;2.53;1.05;;;;;;;4.85;100.00;101766.13;4918970;28;20051;-65
2021/11/15 08:58:49;;;;;;;5.32;0.77;;;;;;;4.76;100.00;101799.97;4932714;29;20095;-71
2021/11/15 09:01:34;;;;;;;1.73;0.57;;;;;;;4.69;100.00;101790.97;4939115;29;20463;-65
2021/11/15 09:04:19;;;;;;;4.15;1.00;;;;;;;5.11;100.00;101790.66;4957461;28;20494;-66
2021/11/15 09:07:04;;;;;;;6.47;1.00;;;;;;;5.19;100.00;101808.50;4955989;28;20069;-68
2021/11/15 09:09:50;;;;;;;3.55;0.80;;;;;;;5.20;100.00;101815.56;4957044;28;20080;-67
2021/11/15 09:12:36;;;;;;;16.17;1.20;;;;;;;5.12;100.00;101814.41;4947285;28;20061;-69
2021/11/15 09:15:21;;;;;;;5.82;1.00;;;;;;;5.31;100.00;101822.06;4965070;28;20051;-70
2021/11/15 09:18:10;;;;;;;8.85;0.90;;;;;;;5.47;100.00;101821.75;4956761;28;20426;-66
2021/11/15 09:20:56;;;;;;;5.40;0.95;;;;;;;5.50;100.00;101826.22;4971820;28;20049;-62
2021/11/15 09:23:44;;;;;;;2.00;0.75;;;;;;;5.57;100.00;101830.84;4973832;28;20061;-67
2021/11/15 09:26:28;;;;;;;9.02;1.00;;;;;;;5.54;100.00;101833.34;4974010;28;20094;-67
2021/11/15 09:29:17;;;;;;;7.05;0.60;;;;;;;5.54;100.00;101838.63;4978793;28;20101;-64
2021/11/15 09:32:02;;;;;;;8.15;0.90;;;;;;;5.35;100.00;101852.00;4907669;28;1933784;-69
2021/11/15 09:34:48;;;;;;;5.03;0.60;;;;;;;5.33;100.00;101851.06;4975837;28;20090;-62
2021/11/15 09:37:34;;;;;;;2.75;0.73;;;;;;;5.33;100.00;101859.81;4976933;28;20849;-63
2021/11/15 09:40:18;;;;;;;2.83;0.50;;;;;;;4.92;100.00;101854.88;4977013;28;20136;-63
2021/11/15 09:43:03;;;;;;;4.70;0.50;;;;;;;4.89;100.00;101866.16;4977852;28;20500;-65
2021/11/15 09:45:48;;;;;;;1.63;0.35;;;;;;;4.93;100.00;101875.06;4960666;28;20049;-67
2021/11/15 09:48:37;;;;;;;5.55;0.43;;;;;;;4.98;100.00;101871.75;4972112;28;20522;-65
2021/11/15 09:51:22;;;;;;;7.00;0.57;;;;;;;5.12;100.00;101869.63;4962183;28;20081;-63
2021/11/15 09:54:08;;;;;;;3.95;0.60;;;;;;;5.12;100.00;101882.75;4972892;28;20411;-63
2021/11/15 09:56:54;;;;;;;2.17;0.60;;;;;;;4.90;100.00;101880.19;4946077;28;20113;-65
2021/11/15 09:59:40;;;;;;;2.35;0.50;;;;;;;4.99;100.00;101891.06;4973893;28;20418;-68
2021/11/15 10:02:25;;;;;;;2.75;0.57;;;;;;;5.07;100.00;101887.84;4972225;28;20147;-63
2021/11/15 10:05:10;;;;;;;;;;;;;;;5.23;100.00;101889.31;4970055;28;20053;-72
2021/11/15 10:07:57;;;;;;;0.93;0.40;;;;;;;5.25;100.00;101898.13;4972028;28;19928;-64
2021/11/15 10:10:44;;;;;;;8.05;0.93;;;;;;;5.36;100.00;101891.50;4971042;28;20078;-65
2021/11/15 10:13:33;;;;;;;3.15;0.60;;;;;;;5.23;100.00;101902.44;4962592;28;20056;-63
2021/11/15 10:16:23;;;;;;;6.07;0.50;;;;;;;5.40;100.00;101905.66;4961813;28;20523;-64
2021/11/15 10:19:13;;;;;;;5.45;0.60;;;;;;;5.61;100.00;101902.00;4974219;28;20097;-64
2021/11/15 10:22:01;;;;;;;3.15;0.75;;;;;;;5.70;100.00;101898.81;4977848;28;20085;-68
2021/11/15 10:24:46;;;;;;;3.33;0.77;;;;;;;5.68;100.00;101893.50;4974715;28;20414;-63
2021/11/15 10:27:31;;;;;;;5.28;1.05;;;;;;;6.79;99.26;101904.06;4941390;28;20105;-70
2021/11/15 10:30:15;;;;;;;3.23;0.90;;;;;;;7.06;94.51;101913.66;4958610;28;20141;-66
2021/11/15 10:33:06;;;;;;;2.53;0.98;;;;;;;6.98;93.47;101909.94;4970948;28;20332;-64
2021/11/15 10:35:52;;;;;;;4.95;1.10;;;;;;;6.68;93.58;101919.56;4950475;28;20050;-66
2021/11/15 10:38:47;;;;;;;1.98;0.70;;;;;;;6.52;94.36;101925.22;4958570;28;20157;-62
2021/11/15 10:41:31;;;;;;;3.10;0.93;;;;;;;6.38;95.28;101925.66;4956749;28;20046;-64
2021/11/15 10:44:19;;;;;;;5.70;0.90;;;;;;;6.16;96.10;101938.97;4960889;28;20073;-66
2021/11/15 10:47:05;;;;;;;4.85;0.80;;;;;;;5.75;99.40;101929.72;4958590;28;20144;-64
2021/11/15 10:50:27;;;;;;;3.92;0.90;;;;;;;5.65;100.00;101942.50;4959843;28;20135;-64
2021/11/15 10:53:54;;;;;;;3.10;0.90;;;;;;;5.39;100.00;101946.88;4932873;29;20045;-69
2021/11/15 10:56:42;;;;;;;2.67;1.33;;;;;;;5.39;100.00;101938.06;4934079;28;20571;-64
2021/11/15 10:59:27;;;;;;;4.85;1.30;;;;;;;5.40;100.00;101930.22;4920568;29;20070;-68
2021/11/15 11:02:28;;;;;;;7.90;2.15;;;;;;;5.46;100.00;101942.72;4931750;28;20082;-68
2021/11/15 11:05:14;;;;;;;4.97;1.58;;;;;;;5.45;100.00;101941.81;4917973;28;20057;-67
2021/11/15 11:08:10;;;;;;;6.00;1.30;;;;;;;5.40;100.00;101955.63;4935309;29;20058;-67
2021/11/15 11:11:10;;;;;;;5.63;1.23;;;;;;;5.29;100.00;101951.75;4934795;29;20106;-66
2021/11/15 11:14:03;;;;;;;6.13;1.30;;;;;;;5.35;100.00;101966.00;4911769;29;20891;-64
2021/11/15 11:16:51;;;;;;;4.40;1.30;;;;;;;5.36;100.00;101970.44;4918265;29;20053;-71
2021/11/15 11:20:20;;;;;;;1.20;0.60;;;;;;;5.16;100.00;101981.97;4934096;29;20078;-71
2021/11/15 11:23:25;;;;;;;2.42;0.57;;;;;;;5.13;100.00;101986.22;4933936;28;20519;-72
2021/11/15 11:26:17;;;;;;;4.95;0.68;;;;;;;4.90;100.00;101985.34;4922249;29;20060;-76
2021/11/15 11:29:04;;;;;;;4.15;0.70;;;;;;;4.72;100.00;101982.03;4941689;28;20132;-64
2021/11/15 11:31:52;;;;;;;2.67;0.75;;;;;;;4.84;100.00;101980.75;4957517;28;20472;-64
2021/11/15 11:34:39;;;;;;;2.80;1.00;;;;;;;4.91;100.00;101980.13;4971596;28;20492;-66
2021/11/15 11:37:27;;;;;;;1.33;0.80;;;;;;;5.07;100.00;101985.97;4945486;28;20710;-68
2021/11/15 11:40:13;;;;;;;3.17;0.90;;;;;;;5.10;100.00;101986.97;4955704;28;20121;-72
2021/11/15 11:42:57;;;;;;;2.10;0.60;;;;;;;5.07;100.00;101997.41;4955214;28;20049;-64
2021/11/15 11:45:43;;;;;;;1.30;0.50;;;;;;;4.97;100.00;102004.03;4967129;28;20756;-65
2021/11/15 11:48:29;;;;;;;6.00;0.60;;;;;;;4.71;98.80;102014.41;4963262;28;20058;-68
2021/11/15 11:51:15;;;;;;;4.40;0.50;;;;;;;4.82;99.14;102011.34;4946943;28;20419;-65
2021/11/15 11:54:14;;;;;;;2.38;0.68;;;;;;;4.75;99.90;102006.69;4954649;28;20058;-63
2021/11/15 11:57:16;;;;;;;7.00;1.30;;;;;;;4.65;100.00;102007.16;4967751;28;20542;-63
2021/11/15 12:00:00;;;;;;;7.20;1.02;;;;;;;4.81;100.00;102017.44;4941276;28;20521;-67
2021/11/15 12:02:46;;;;;;;4.97;0.95;;;;;;;4.88;100.00;102031.72;4951357;28;20078;-66
2021/11/15 12:05:31;;;;;;;7.05;1.10;;;;;;;4.97;100.00;102034.69;4965672;28;20110;-66
2021/11/15 12:08:17;;;;;;;1.63;0.73;;;;;;;4.78;100.00;102035.72;4970653;28;20913;-66
2021/11/15 12:11:29;;;;;;;7.05;0.90;;;;;;;4.87;100.00;102041.31;4941743;28;20538;-69
2021/11/15 12:14:28;;;;;;;7.82;0.80;;;;;;;4.78;100.00;102045.31;4977104;28;20092;-65
2021/11/15 12:17:17;;;;;;;1.08;0.75;;;;;;;4.53;100.00;102030.34;4971449;28;20046;-68
2021/11/15 12:20:05;;;;;;;3.45;0.80;;;;;;;4.56;100.00;102058.44;4968764;28;20112;-71
2021/11/15 12:22:54;;;;;;;1.52;0.50;;;;;;;4.67;100.00;102051.91;4974823;28;20101;-65
2021/11/15 12:25:59;;;;;;;3.17;0.70;;;;;;;4.56;100.00;102056.69;4951974;28;20120;-69
2021/11/15 12:28:49;;;;;;;10.30;0.90;;;;;;;4.58;100.00;102064.66;4962310;28;20497;-68
2021/11/15 12:31:53;;;;;;;4.22;0.88;;;;;;;4.65;100.00;102070.22;4952550;28;20078;-68
2021/11/15 12:34:59;;;;;;;1.00;0.60;;;;;;;4.49;100.00;102077.41;4954527;28;20105;-61
2021/11/15 12:37:45;;;;;;;7.70;0.70;;;;;;;4.36;100.00;102081.25;4952828;28;20057;-64
2021/11/15 12:40:39;;;;;;;4.00;0.90;;;;;;;4.46;100.00;102082.53;4973204;28;20134;-66
2021/11/15 12:43:24;;;;;;;3.60;0.97;;;;;;;4.43;100.00;102083.31;4943499;28;20100;-66
2021/11/15 12:46:15;;;;;;;13.88;1.05;;;;;;;4.44;100.00;102087.72;4968413;28;20660;-68
2021/11/15 12:49:22;;;;;;;3.38;0.60;;;;;;;4.53;100.00;102089.84;4959124;28;20633;-65
2021/11/15 12:52:10;;;;;;;9.38;0.93;;;;;;;4.43;100.00;102088.56;4957282;28;20057;-66
2021/11/15 12:55:01;;;;;;;1.80;0.85;;;;;;;4.38;100.00;102089.22;4960482;28;20088;-66
2021/11/15 12:57:50;;;;;;;6.35;0.70;;;;;;;4.38;100.00;102086.59;4963565;28;20104;-66